»·PEaware :: AAL235 KMRY-KLAS

AAL235 :: KMRY-KLAS

FLIGHT INFORMATION

Flight Status: Arrived
Operator:
American Airlines
More flights by this operator :: More flights under this callsign
Pilot: Josh T. (20631)
Aircraft: BOEING 737-800
(B738)
More flights by this aircraft type
Origin: KMRY Monterey Peninsula
United States
Destination: KLAS McCarran Intl
United States
More flights between these airports :: More routes between these airports
Route: +MRY5 SHOEY SNS PXN NTELL BIH LIDAT J92 BTY SUNST4
File this flight plan on PilotEdge
Remarks:
Altitude:
(Current/Filed)
39,000ft
Speed:
(Current/Filed)
446kts
Departed: 04-Apr-20 10:00 AM
Arrived: 04-Apr-20 11:01 AM
Distance/Time
Traveled:
325nm/1:00
Distance/Time
To Go:
Arrived

Flight Plot

Page will automatically refresh every two minutes.

Flight plan parsing failed; only flown route is shown


Map Options




Map Legend


Flown Route
Filed Route
Departure Airport
Arrival Airport
Navaid (VOR, NDB)
Fix

Horizontal Profiles

Position Reports

Time Latitude Longitude Heading Altitude Ground
Speed
04-Apr-20 09:34 36.587144 -121.848460 292 213ft 0kts
04-Apr-20 09:35 36.587144 -121.848460 292 213ft 0kts
04-Apr-20 09:36 36.587144 -121.848460 292 213ft 0kts
04-Apr-20 09:37 36.587144 -121.848460 292 213ft 0kts
04-Apr-20 09:38 36.587144 -121.848460 292 213ft 0kts
04-Apr-20 09:39 36.587144 -121.848460 292 213ft 0kts
04-Apr-20 09:40 36.587144 -121.848460 292 213ft 0kts
04-Apr-20 09:41 36.587144 -121.848460 292 213ft 0kts
04-Apr-20 09:42 36.587144 -121.848460 292 213ft 0kts
04-Apr-20 09:43 36.587144 -121.848460 292 213ft 0kts
04-Apr-20 09:44 36.587144 -121.848460 292 213ft 0kts
04-Apr-20 09:45 36.587144 -121.848460 292 213ft 0kts
04-Apr-20 09:46 36.587144 -121.848460 292 213ft 0kts
04-Apr-20 09:47 36.587144 -121.848460 292 213ft 0kts
04-Apr-20 09:48 36.587144 -121.848460 292 213ft 0kts
04-Apr-20 09:49 36.587144 -121.848460 292 213ft 0kts
04-Apr-20 09:50 36.587144 -121.848460 292 213ft 0kts
04-Apr-20 09:51 36.587144 -121.848460 292 213ft 0kts
04-Apr-20 09:52 36.587144 -121.848460 292 213ft 0kts
04-Apr-20 09:53 36.587144 -121.848460 292 213ft 0kts
04-Apr-20 09:55 36.587144 -121.848460 292 213ft 0kts
04-Apr-20 09:56 36.587518 -121.848581 343 213ft 2kts
04-Apr-20 09:57 36.588557 -121.851428 292 213ft 11kts
04-Apr-20 09:58 36.589810 -121.855574 292 213ft 15kts
04-Apr-20 09:59 36.591012 -121.856230 111 213ft 0kts
04-Apr-20 10:00 36.582393 -121.830522 112 683ft 165kts
04-Apr-20 10:01 36.610951 -121.793631 354 3188ft 217kts
04-Apr-20 10:02 36.674138 -121.806305 14 6123ft 257kts
04-Apr-20 10:03 36.702296 -121.726455 106 9607ft 297kts
04-Apr-20 10:04 36.670556 -121.621893 106 11930ft 359kts
04-Apr-20 10:05 36.669764 -121.492621 83 14897ft 387kts
04-Apr-20 10:06 36.679521 -121.354833 85 17712ft 409kts
04-Apr-20 10:07 36.688537 -121.210079 86 19031ft 423kts
04-Apr-20 10:08 36.698471 -121.060949 86 21394ft 440kts
04-Apr-20 10:09 36.707660 -120.905356 86 23547ft 458kts
04-Apr-20 10:10 36.721653 -120.745006 76 25474ft 475kts
04-Apr-20 10:10 36.750172 -120.610756 74 26933ft 487kts
04-Apr-20 10:12 36.790788 -120.416777 75 28767ft 501kts
04-Apr-20 10:13 36.826813 -120.246826 74 30116ft 513kts
04-Apr-20 10:13 36.856842 -120.101897 75 31145ft 522kts
04-Apr-20 10:14 36.892757 -119.926113 76 32680ft 521kts
04-Apr-20 10:16 36.951421 -119.728129 68 34395ft 520kts
04-Apr-20 10:17 37.004748 -119.560584 68 35770ft 517kts
04-Apr-20 10:17 37.049150 -119.421495 68 36879ft 514kts
04-Apr-20 10:18 37.101908 -119.255158 68 38035ft 512kts
04-Apr-20 10:19 37.153816 -119.089754 68 38963ft 512kts
04-Apr-20 10:20 37.205533 -118.923919 68 38950ft 505kts
04-Apr-20 10:21 37.256506 -118.759506 68 38928ft 506kts
04-Apr-20 10:22 37.307553 -118.594857 68 38892ft 506kts
04-Apr-20 10:23 37.357811 -118.429962 69 38867ft 506kts
04-Apr-20 10:24 37.384053 -118.257001 88 38861ft 505kts
04-Apr-20 10:25 37.391622 -118.080631 88 38867ft 505kts
04-Apr-20 10:26 37.400285 -117.904621 88 38876ft 504kts
04-Apr-20 10:27 37.409232 -117.728752 88 38884ft 504kts
04-Apr-20 10:28 37.417891 -117.552829 88 38891ft 504kts
04-Apr-20 10:29 37.425348 -117.376659 93 38889ft 502kts
04-Apr-20 10:30 37.367885 -117.228396 144 38903ft 471kts
04-Apr-20 10:31 37.262279 -117.135269 154 38892ft 460kts
04-Apr-20 10:32 37.155520 -117.045888 153 37985ft 461kts
04-Apr-20 10:33 37.049217 -116.955783 153 35296ft 463kts
04-Apr-20 10:34 36.942358 -116.866020 153 32823ft 456kts
04-Apr-20 10:35 36.838489 -116.779287 153 30758ft 443kts
04-Apr-20 10:36 36.747965 -116.673745 136 28770ft 446kts
04-Apr-20 10:37 36.667955 -116.558749 136 26824ft 434kts
04-Apr-20 10:38 36.589654 -116.446878 136 24898ft 422kts
04-Apr-20 10:39 36.512952 -116.338643 136 22991ft 411kts
04-Apr-20 10:40 36.438289 -116.233491 135 21107ft 400kts
04-Apr-20 10:41 36.365907 -116.131249 135 19260ft 389kts
04-Apr-20 10:42 36.295657 -116.032927 135 17530ft 366kts
04-Apr-20 10:43 36.229710 -115.940923 135 16111ft 346kts
04-Apr-20 10:44 36.181709 -115.843032 114 15457ft 334kts
04-Apr-20 10:45 36.147985 -115.736295 114 14427ft 330kts
04-Apr-20 10:46 36.114545 -115.632723 114 13444ft 319kts
04-Apr-20 10:47 36.082244 -115.532474 115 12492ft 312kts
04-Apr-20 10:48 36.050153 -115.433940 115 11560ft 303kts
04-Apr-20 10:49 36.027595 -115.336341 97 10574ft 293kts
04-Apr-20 10:50 36.021079 -115.237391 97 9406ft 284kts
04-Apr-20 10:51 36.014842 -115.147492 97 8847ft 232kts
04-Apr-20 10:52 36.009661 -115.071023 97 8049ft 233kts
04-Apr-20 10:53 36.005187 -114.992957 97 6693ft 222kts
04-Apr-20 10:54 36.002375 -114.917788 79 5094ft 221kts
04-Apr-20 10:55 36.048999 -114.914947 316 4942ft 207kts
04-Apr-20 10:56 36.073862 -114.970568 267 4599ft 178kts
04-Apr-20 10:57 36.073759 -115.029627 265 3713ft 161kts
04-Apr-20 10:58 36.073579 -115.085226 267 2828ft 157kts
04-Apr-20 10:59 36.073665 -115.136033 269 2190ft 128kts
04-Apr-20 11:00 36.074263 -115.149512 296 2189ft 9kts
04-Apr-20 11:01 36.074750 -115.150585 301 2189ft 0kts
04-Apr-20 11:02 36.076155 -115.151845 338 2189ft 1kts
04-Apr-20 11:03 36.078103 -115.151461 58 2189ft 9kts
04-Apr-20 11:04 36.078634 -115.148825 94 2189ft 7kts
04-Apr-20 11:05 36.078324 -115.144186 95 2189ft 23kts
04-Apr-20 11:06 36.078927 -115.139851 325 2189ft 7kts
04-Apr-20 11:07 36.079773 -115.140054 24 2189ft 0kts
04-Apr-20 11:08 36.079777 -115.140052 24 2189ft 0kts
04-Apr-20 11:09 36.079777 -115.140052 24 2189ft 0kts
04-Apr-20 11:10 36.079777 -115.140052 24 2189ft 0kts

Navigation Log

Ident Type
Flight plan parsing failed, navigation log unavailable